Ann Arbor, MI

11:15 AM EDT on October 02, 2014 (GMT -0400)
Walker Briar Works | Change Station
CLOSE
Current Station
Personal Weather Station
Location: Ann Arbor, MI
Elevation: 961 ft
Nearby Weather Stations

Elev 961 ft 42.26 °N, 83.77 °W | Updated 4 minutes ago

Partly Cloudy
Partly Cloudy
62.4 °F
Feels Like 62.4 °F
N
0.7
Wind Variable Wind from ENE
Gusts 5.4 mph

Today
High -- | Low -- °F
--% Chance of Precip.
Yesterday
High -- | Low -- °F
Precip. -- in
7:33 AM 7:15 PM
First Quarter, 59% visible
Pressure 30.00 in
Visibility 10.0 miles
Clouds Clear
Dew Point 57 °F
Humidity 83%
Rainfall 0.00 in
Snow Depth Not available.
UV 4 out of 12
Pollen 1.10 out of 12
PM2.5 Moderate
Flu Activity Not available.
METAR KARB 021453Z AUTO 14006KT 10SM CLR 17/12 A3000 RMK AO2 SLP159 T01720122 58012

More Conditions Fewer Conditions

Pressure 30.00 in
Visibility 10.0 miles
Clouds Clear
Dew Point 57 °F
Humidity 83%
Rainfall 0.00 in
Snow Depth Not available.
UV 4 out of 12
Pollen 1.10 out of 12
PM2.5 Moderate
Flu Activity Not available.
METAR KARB 021453Z AUTO 14006KT 10SM CLR 17/12 A3000 RMK AO2 SLP159 T01720122 58012

More Conditions Fewer Conditions

10-Day Weather Forecast

Almanac

Astronomy

Oct. 02, 2014 Rise Set
Actual Time 7:33 AM EDT 7:15 PM EDT
Civil Twilight 7:05 AM EDT 7:42 PM EDT
Nautical Twilight 6:32 AM EDT 8:15 PM EDT
Astronomical Twilight 6:00 AM EDT 8:48 PM EDT
Moon 3:26 PM EDT 12:43 AM EDT
Length of Visible Light 12h 37m
Length of Day
11h 41m
Tomorrow will be 2m 49s shorter.
First Quarter, 59% of the Moon is Illuminated
Today
First Quarter
Oct 8
Full
Oct 15
Last Quarter
Oct 23
New
Oct 30
First Quarter

Today's Extremes

State Highs State Lows

Community

WunderPhotos

Upload Photos

1,758,255 photos uploaded!

WunderBlogs® & News

By Dr. Jeff Masters
Director of Meteorology, Weather Underground
By Kari Strenfel
Meteorologist, Weather Underground
By Christopher C. Burt
Weather Historian, Weather Underground
October 2, 2014
October 2, 2014
October 2, 2014

Nearby

Air Quality

  Air Quality AQ Index Pollutant
Yesterday Good
PM2.5
Current Moderate
PM2.5
Thursday Moderate
PM2.5
Thursday Good
OZONE
Friday Good
OZONE
Friday Good
PM2.5
Saturday Good
OZONE
Saturday Good
PM2.5

Snow Depth

Station Depth Elevation
No new snow has been reported.

Earthquake Activity

City Distance Mag. Time & Date
No recent earthquake activity has been reported nearby.
Minimum magnitude displayed is 2.5.

Coastal Water Temperatures

Place Temperature
No Stations Reporting

Nearby Weather Stations